Lima Allen County Airport


Codes: KAOH/AOH
Name: Lima Allen County Airport
City: Lima
Country: United States
Elevation: 975 ft.

Photos at Lima Allen County Airport


   Photos courtesy of SpottingLog. You can add your own sightings and photos by signing up for a free trial today.



No photos found.

Weather at Lima Allen County Airport


Time (UTC)DescriptionTempratureWindCloud coverageVisibilityPressureHumidity
23-May-2024 21:00Scattered Clouds26°C2 mph, W39%10000m1013hPa38%
24-May-2024 00:00Light Rain23°C4 mph, NE44%10000m1013hPa54%
24-May-2024 03:00Overcast Clouds20°C7 mph, NE97%10000m1013hPa59%
24-May-2024 06:00Overcast Clouds17°C7 mph, NE85%10000m1012hPa67%
24-May-2024 09:00Clear Sky15°C7 mph, E0%10000m1012hPa75%
24-May-2024 12:00Clear Sky18°C4 mph, E0%10000m1013hPa83%
24-May-2024 15:00Clear Sky23°C7 mph, SE6%10000m1012hPa60%
24-May-2024 18:00Clear Sky26°C7 mph, SE5%10000m1010hPa47%
24-May-2024 21:00Scattered Clouds27°C7 mph, SE26%10000m1009hPa44%
25-May-2024 00:00Broken Clouds23°C7 mph, SE64%10000m1008hPa69%
25-May-2024 03:00Overcast Clouds20°C9 mph, S100%10000m1009hPa92%
25-May-2024 06:00Broken Clouds19°C11 mph, SW70%10000m1008hPa94%
25-May-2024 09:00Light Rain19°C11 mph, S12%10000m1008hPa97%
25-May-2024 12:00Light Rain19°C9 mph, SW43%10000m1009hPa94%
25-May-2024 15:00Light Rain23°C13 mph, NW97%10000m1009hPa77%
25-May-2024 18:00Broken Clouds25°C13 mph, W68%10000m1010hPa51%
25-May-2024 21:00Clear Sky24°C13 mph, NW3%10000m1011hPa40%
26-May-2024 00:00Clear Sky19°C7 mph, N3%10000m1012hPa65%
26-May-2024 03:00Clear Sky14°C7 mph, N3%10000m1013hPa71%
26-May-2024 06:00Scattered Clouds13°C7 mph, E49%10000m1013hPa75%
26-May-2024 09:00Overcast Clouds12°C9 mph, E91%10000m1013hPa81%
26-May-2024 12:00Broken Clouds14°C9 mph, SE52%10000m1012hPa75%
26-May-2024 15:00Broken Clouds21°C13 mph, SE78%10000m1010hPa62%
26-May-2024 18:00Light Rain21°C11 mph, SE89%10000m1008hPa82%
26-May-2024 21:00Moderate Rain20°C20 mph, S100%10000m1003hPa83%
27-May-2024 00:00Light Rain20°C22 mph, S100%8751m1001hPa84%
27-May-2024 03:00Moderate Rain21°C16 mph, SW100%10000m1001hPa82%
27-May-2024 06:00Overcast Clouds19°C16 mph, SW96%10000m1001hPa88%
27-May-2024 09:00Light Rain17°C11 mph, SW39%10000m1002hPa94%
27-May-2024 12:00Scattered Clouds18°C13 mph, SW41%10000m1003hPa88%
27-May-2024 15:00Scattered Clouds21°C20 mph, SW47%10000m1005hPa68%
27-May-2024 18:00Few Clouds23°C22 mph, W24%10000m1005hPa58%
27-May-2024 21:00Scattered Clouds23°C22 mph, SW46%10000m1004hPa64%
28-May-2024 00:00Light Rain17°C20 mph, W64%10000m1006hPa75%
28-May-2024 03:00Few Clouds14°C16 mph, NW13%10000m1009hPa74%
28-May-2024 06:00Clear Sky12°C11 mph, W6%10000m1011hPa82%
28-May-2024 09:00Clear Sky11°C11 mph, W1%10000m1011hPa86%
28-May-2024 12:00Clear Sky13°C11 mph, W1%10000m1013hPa85%
28-May-2024 15:00Clear Sky18°C13 mph, W0%10000m1013hPa61%
28-May-2024 18:00Clear Sky21°C13 mph, W2%10000m1012hPa51%